Terminal Aerodrome Forecast
Issued by NWS

Home | Current Version | Previous Version | Graphics & Text | Print | Product List | Glossary On
Versions: 1 2 3 4 5 6 7 8 9 10 11 12 13 14 15 16 17 18 19 20 21 22 23 24 25 26 27 28
962
FTUS43 KUNR 241249 AAA
TAFGCC
TAF AMD
KGCC 241249Z 2413/2512 31010KT P6SM -SHRA SCT008 OVC040
      TEMPO 2413/2415 2SM RA BR BKN012
     FM241500 30022G32KT P6SM -RA BKN025
     FM250100 30018G28KT P6SM OVC050=

USA.gov is the U.S. government's official web portal to all federal, state and local government web resources and services.